Abbottabad Weather



Abbottabad's Current Weather

Temprature 13.33o scattered clouds

scattered clouds

Rain: 0 %

Min Temprature13.33o
Max Temprature13.33o
Humidity39
Wind Speed1.34 m/h
Sun Rise07:09:50
Sun Set17:27:46
Current Time: 23-Jan-2021 18:06:15
Lat/Lon: 34.1469, 73.2145




Abbottabad's Geo Location



Abbottabad's Weather Forecast

Time Overall Temp Min Temp Max Temp Humidity Wind Speed Rain
23-Jan-2021 (Sat)
20:00:00 broken clouds 9.280 5.030 9.280 56 0.72 m/h 0 %
23:00:00 scattered clouds 5.940 3.900 5.940 67 2.26 m/h 0 %
24-Jan-2021 (Sun)
02:00:00 clear sky 3.790 3.140 3.790 73 2.79 m/h 0 %
05:00:00 clear sky 2.600 2.510 2.600 75 2.66 m/h 0 %
08:00:00 clear sky 3.510 3.510 3.510 70 2.68 m/h 0 %
11:00:00 clear sky 10.650 10.650 10.650 43 1.17 m/h 0 %
14:00:00 clear sky 12.720 12.720 12.720 37 1.94 m/h 0 %
17:00:00 clear sky 9.670 9.670 9.670 47 0.97 m/h 0 %
20:00:00 clear sky 6.300 6.300 6.300 58 2.25 m/h 0 %
23:00:00 clear sky 5.000 5.000 5.000 63 3.14 m/h 0 %
25-Jan-2021 (Mon)
02:00:00 clear sky 4.260 4.260 4.260 63 3.25 m/h 0 %
05:00:00 clear sky 3.730 3.730 3.730 65 3.47 m/h 0 %
08:00:00 clear sky 4.390 4.390 4.390 63 3.43 m/h 0 %
11:00:00 clear sky 11.720 11.720 11.720 39 1.74 m/h 0 %
14:00:00 clear sky 14.130 14.130 14.130 34 0.72 m/h 0 %
17:00:00 clear sky 10.520 10.520 10.520 45 1.05 m/h 0 %
20:00:00 clear sky 6.940 6.940 6.940 56 2.19 m/h 0 %
23:00:00 clear sky 5.480 5.480 5.480 62 3.29 m/h 0 %
26-Jan-2021 (Tue)
02:00:00 clear sky 4.480 4.480 4.480 62 3.53 m/h 0 %
05:00:00 clear sky 3.790 3.790 3.790 65 3.54 m/h 0 %
08:00:00 clear sky 4.340 4.340 4.340 63 3.49 m/h 0 %
11:00:00 clear sky 11.590 11.590 11.590 40 1.06 m/h 0 %
14:00:00 clear sky 13.690 13.690 13.690 35 0.91 m/h 0 %
17:00:00 few clouds 10.430 10.430 10.430 45 1.21 m/h 0 %
20:00:00 clear sky 6.600 6.600 6.600 57 1.96 m/h 0 %
23:00:00 clear sky 5.040 5.040 5.040 61 3.03 m/h 0 %
27-Jan-2021 (Wed)
02:00:00 clear sky 4.040 4.040 4.040 61 3.32 m/h 0 %
05:00:00 clear sky 3.360 3.360 3.360 64 3.38 m/h 0 %
08:00:00 clear sky 4.080 4.080 4.080 62 3.44 m/h 0 %
11:00:00 few clouds 11.330 11.330 11.330 39 1.41 m/h 0 %
14:00:00 overcast clouds 13.350 13.350 13.350 34 1.5 m/h 0 %
17:00:00 overcast clouds 9.890 9.890 9.890 45 1.28 m/h 0 %
20:00:00 few clouds 6.030 6.030 6.030 56 2.08 m/h 0 %
23:00:00 clear sky 4.710 4.710 4.710 61 2.93 m/h 0 %
28-Jan-2021 (Thu)
02:00:00 clear sky 3.890 3.890 3.890 62 3.03 m/h 0 %
05:00:00 clear sky 3.210 3.210 3.210 65 3.16 m/h 0 %
08:00:00 clear sky 4.080 4.080 4.080 61 3.1 m/h 0 %
11:00:00 clear sky 11.610 11.610 11.610 38 1.15 m/h 0 %
14:00:00 clear sky 13.820 13.820 13.820 33 1.51 m/h 0 %
17:00:00 clear sky 10.420 10.420 10.420 43 1.51 m/h 0 %


Abbottabad's Tourist Spots

Historical Places in Abbottabad

Famous Cities (60)